sensor_id;sensor_type;location;lat;lon;timestamp;temperature;humidity
69162;DHT22;56269;51.738;21.652;2022-09-09T00:04:00;10.78;98.04
69162;DHT22;56269;51.738;21.652;2022-09-09T00:06:37;10.77;98.00
69162;DHT22;56269;51.738;21.652;2022-09-09T00:11:56;10.81;98.09
69162;DHT22;56269;51.738;21.652;2022-09-09T00:17:18;10.78;98.22
69162;DHT22;56269;51.738;21.652;2022-09-09T00:19:55;10.81;98.06
69162;DHT22;56269;51.738;21.652;2022-09-09T00:22:27;10.80;98.17
69162;DHT22;56269;51.738;21.652;2022-09-09T00:24:56;10.78;98.59
69162;DHT22;56269;51.738;21.652;2022-09-09T00:27:46;10.75;98.34
69162;DHT22;56269;51.738;21.652;2022-09-09T00:32:46;10.74;98.54
69162;DHT22;56269;51.738;21.652;2022-09-09T00:35:23;10.85;97.86
69162;DHT22;56269;51.738;21.652;2022-09-09T00:37:53;10.84;97.95
69162;DHT22;56269;51.738;21.652;2022-09-09T00:40:30;10.80;98.33
69162;DHT22;56269;51.738;21.652;2022-09-09T00:46:12;10.85;98.44
69162;DHT22;56269;51.738;21.652;2022-09-09T00:48:54;10.82;98.80
69162;DHT22;56269;51.738;21.652;2022-09-09T00:51:37;10.82;99.14
69162;DHT22;56269;51.738;21.652;2022-09-09T00:54:38;10.85;98.60
69162;DHT22;56269;51.738;21.652;2022-09-09T00:57:30;10.82;98.78
69162;DHT22;56269;51.738;21.652;2022-09-09T01:00:16;10.77;99.02
69162;DHT22;56269;51.738;21.652;2022-09-09T01:05:45;10.81;99.07
69162;DHT22;56269;51.738;21.652;2022-09-09T01:11:02;10.81;99.51
69162;DHT22;56269;51.738;21.652;2022-09-09T01:13:34;10.81;99.07
69162;DHT22;56269;51.738;21.652;2022-09-09T01:16:02;10.77;99.52
69162;DHT22;56269;51.738;21.652;2022-09-09T01:18:33;10.82;98.86
69162;DHT22;56269;51.738;21.652;2022-09-09T01:24:01;10.74;99.66
69162;DHT22;56269;51.738;21.652;2022-09-09T01:26:59;10.75;99.69
69162;DHT22;56269;51.738;21.652;2022-09-09T01:29:27;10.72;99.48
69162;DHT22;56269;51.738;21.652;2022-09-09T01:32:02;10.74;99.84
69162;DHT22;56269;51.738;21.652;2022-09-09T01:34:33;10.71;99.99
69162;DHT22;56269;51.738;21.652;2022-09-09T01:37:12;10.74;99.90
69162;DHT22;56269;51.738;21.652;2022-09-09T01:39:40;10.67;99.99
69162;DHT22;56269;51.738;21.652;2022-09-09T01:42:11;10.67;99.99
69162;DHT22;56269;51.738;21.652;2022-09-09T01:44:38;10.68;99.99
69162;DHT22;56269;51.738;21.652;2022-09-09T01:47:05;10.72;99.99
69162;DHT22;56269;51.738;21.652;2022-09-09T01:49:32;10.78;99.99
69162;DHT22;56269;51.738;21.652;2022-09-09T01:52:01;10.88;99.91
69162;DHT22;56269;51.738;21.652;2022-09-09T01:54:30;10.92;99.99
69162;DHT22;56269;51.738;21.652;2022-09-09T02:02:38;10.91;99.96
69162;DHT22;56269;51.738;21.652;2022-09-09T02:07:45;10.92;99.99
69162;DHT22;56269;51.738;21.652;2022-09-09T02:10:26;10.90;99.99
69162;DHT22;56269;51.738;21.652;2022-09-09T02:13:04;10.91;99.99
69162;DHT22;56269;51.738;21.652;2022-09-09T02:15:40;10.92;99.99
69162;DHT22;56269;51.738;21.652;2022-09-09T02:18:09;10.94;99.99
69162;DHT22;56269;51.738;21.652;2022-09-09T02:20:39;10.97;99.99
69162;DHT22;56269;51.738;21.652;2022-09-09T02:23:06;10.97;99.99
69162;DHT22;56269;51.738;21.652;2022-09-09T02:25:35;10.97;99.99
69162;DHT22;56269;51.738;21.652;2022-09-09T02:28:05;10.95;99.99
69162;DHT22;56269;51.738;21.652;2022-09-09T02:30:34;11.00;99.99
69162;DHT22;56269;51.738;21.652;2022-09-09T02:33:03;11.02;99.99
69162;DHT22;56269;51.738;21.652;2022-09-09T02:35:32;11.05;99.99
69162;DHT22;56269;51.738;21.652;2022-09-09T02:38:06;11.10;99.99
69162;DHT22;56269;51.738;21.652;2022-09-09T02:40:33;11.08;99.99
69162;DHT22;56269;51.738;21.652;2022-09-09T02:42:59;11.07;99.99
69162;DHT22;56269;51.738;21.652;2022-09-09T02:45:39;11.12;99.99
69162;DHT22;56269;51.738;21.652;2022-09-09T02:48:14;11.08;99.99
69162;DHT22;56269;51.738;21.652;2022-09-09T02:55:58;11.14;99.99
69162;DHT22;56269;51.738;21.652;2022-09-09T02:58:26;11.15;99.99
69162;DHT22;56269;51.738;21.652;2022-09-09T03:00:53;11.18;99.99
69162;DHT22;56269;51.738;21.652;2022-09-09T03:03:19;11.19;99.99
69162;DHT22;56269;51.738;21.652;2022-09-09T03:05:46;11.22;99.99
69162;DHT22;56269;51.738;21.652;2022-09-09T03:08:12;11.21;99.99
69162;DHT22;56269;51.738;21.652;2022-09-09T03:10:39;11.21;99.99
69162;DHT22;56269;51.738;21.652;2022-09-09T03:13:05;11.22;99.99
69162;DHT22;56269;51.738;21.652;2022-09-09T03:15:32;11.25;99.99
69162;DHT22;56269;51.738;21.652;2022-09-09T03:17:58;11.22;99.99
69162;DHT22;56269;51.738;21.652;2022-09-09T03:20:27;11.21;99.99
69162;DHT22;56269;51.738;21.652;2022-09-09T03:22:54;11.25;99.99
69162;DHT22;56269;51.738;21.652;2022-09-09T03:25:21;11.26;99.99
69162;DHT22;56269;51.738;21.652;2022-09-09T03:27:50;11.29;99.99
69162;DHT22;56269;51.738;21.652;2022-09-09T03:30:18;11.29;99.99
69162;DHT22;56269;51.738;21.652;2022-09-09T03:32:46;11.28;99.99
69162;DHT22;56269;51.738;21.652;2022-09-09T03:35:12;11.32;99.99
69162;DHT22;56269;51.738;21.652;2022-09-09T03:37:38;11.38;99.99
69162;DHT22;56269;51.738;21.652;2022-09-09T03:40:05;11.39;99.99
69162;DHT22;56269;51.738;21.652;2022-09-09T03:42:32;11.38;99.99
69162;DHT22;56269;51.738;21.652;2022-09-09T03:44:58;11.35;99.99
69162;DHT22;56269;51.738;21.652;2022-09-09T03:47:25;11.35;99.99
69162;DHT22;56269;51.738;21.652;2022-09-09T03:49:51;11.39;99.99
69162;DHT22;56269;51.738;21.652;2022-09-09T03:52:17;11.40;99.99
69162;DHT22;56269;51.738;21.652;2022-09-09T03:54:44;11.43;99.99
69162;DHT22;56269;51.738;21.652;2022-09-09T03:57:10;11.52;99.99
69162;DHT22;56269;51.738;21.652;2022-09-09T03:59:36;11.51;99.99
69162;DHT22;56269;51.738;21.652;2022-09-09T04:02:03;11.52;99.99
69162;DHT22;56269;51.738;21.652;2022-09-09T04:04:30;11.53;99.99
69162;DHT22;56269;51.738;21.652;2022-09-09T04:06:56;11.52;99.99
69162;DHT22;56269;51.738;21.652;2022-09-09T04:09:21;11.51;99.99
69162;DHT22;56269;51.738;21.652;2022-09-09T04:11:48;11.51;99.99
69162;DHT22;56269;51.738;21.652;2022-09-09T04:14:15;11.52;99.99
69162;DHT22;56269;51.738;21.652;2022-09-09T04:16:41;11.49;99.99
69162;DHT22;56269;51.738;21.652;2022-09-09T04:19:11;11.52;99.99
69162;DHT22;56269;51.738;21.652;2022-09-09T04:21:40;11.47;99.99
69162;DHT22;56269;51.738;21.652;2022-09-09T04:24:07;11.51;99.99
69162;DHT22;56269;51.738;21.652;2022-09-09T04:26:35;11.55;99.99
69162;DHT22;56269;51.738;21.652;2022-09-09T04:29:03;11.52;99.99
69162;DHT22;56269;51.738;21.652;2022-09-09T04:31:29;11.52;99.99
69162;DHT22;56269;51.738;21.652;2022-09-09T04:33:56;11.47;99.99
69162;DHT22;56269;51.738;21.652;2022-09-09T04:36:22;11.52;99.99
69162;DHT22;56269;51.738;21.652;2022-09-09T04:38:48;11.52;99.99
69162;DHT22;56269;51.738;21.652;2022-09-09T04:41:16;11.47;99.99
69162;DHT22;56269;51.738;21.652;2022-09-09T04:43:43;11.53;99.99
69162;DHT22;56269;51.738;21.652;2022-09-09T04:46:09;11.51;99.99
69162;DHT22;56269;51.738;21.652;2022-09-09T04:48:35;11.56;99.99
69162;DHT22;56269;51.738;21.652;2022-09-09T04:51:04;11.53;99.99
69162;DHT22;56269;51.738;21.652;2022-09-09T04:53:31;11.55;99.99
69162;DHT22;56269;51.738;21.652;2022-09-09T04:56:11;11.55;99.99
69162;DHT22;56269;51.738;21.652;2022-09-09T04:58:38;11.55;99.99
69162;DHT22;56269;51.738;21.652;2022-09-09T05:01:11;11.56;99.99
69162;DHT22;56269;51.738;21.652;2022-09-09T05:03:37;11.55;99.99
69162;DHT22;56269;51.738;21.652;2022-09-09T05:06:09;11.55;99.99
69162;DHT22;56269;51.738;21.652;2022-09-09T05:08:37;11.53;99.99
69162;DHT22;56269;51.738;21.652;2022-09-09T05:11:11;11.58;99.99
69162;DHT22;56269;51.738;21.652;2022-09-09T05:13:37;11.56;99.99
69162;DHT22;56269;51.738;21.652;2022-09-09T05:16:03;11.58;99.99
69162;DHT22;56269;51.738;21.652;2022-09-09T05:18:29;11.62;99.99
69162;DHT22;56269;51.738;21.652;2022-09-09T05:20:59;11.61;99.99
69162;DHT22;56269;51.738;21.652;2022-09-09T05:23:50;11.62;99.99
69162;DHT22;56269;51.738;21.652;2022-09-09T05:26:19;11.63;99.99
69162;DHT22;56269;51.738;21.652;2022-09-09T05:28:46;11.67;99.99
69162;DHT22;56269;51.738;21.652;2022-09-09T05:31:14;11.66;99.99
69162;DHT22;56269;51.738;21.652;2022-09-09T05:33:41;11.67;99.99
69162;DHT22;56269;51.738;21.652;2022-09-09T05:36:19;11.67;99.99
69162;DHT22;56269;51.738;21.652;2022-09-09T05:38:46;11.69;99.99
69162;DHT22;56269;51.738;21.652;2022-09-09T05:41:13;11.65;99.99
69162;DHT22;56269;51.738;21.652;2022-09-09T05:43:44;11.61;99.99
69162;DHT22;56269;51.738;21.652;2022-09-09T05:46:13;11.67;99.99
69162;DHT22;56269;51.738;21.652;2022-09-09T05:48:41;11.69;99.99
69162;DHT22;56269;51.738;21.652;2022-09-09T05:51:12;11.67;99.99
69162;DHT22;56269;51.738;21.652;2022-09-09T05:53:42;11.73;99.99
69162;DHT22;56269;51.738;21.652;2022-09-09T05:56:13;11.77;99.99
69162;DHT22;56269;51.738;21.652;2022-09-09T05:58:40;11.74;99.99
69162;DHT22;56269;51.738;21.652;2022-09-09T06:01:08;11.76;99.99
69162;DHT22;56269;51.738;21.652;2022-09-09T06:03:38;11.74;99.99
69162;DHT22;56269;51.738;21.652;2022-09-09T06:06:07;11.77;99.99
69162;DHT22;56269;51.738;21.652;2022-09-09T06:08:35;11.79;99.99
69162;DHT22;56269;51.738;21.652;2022-09-09T06:11:10;11.77;99.99
69162;DHT22;56269;51.738;21.652;2022-09-09T06:13:37;11.76;99.99
69162;DHT22;56269;51.738;21.652;2022-09-09T06:16:05;11.76;99.99
69162;DHT22;56269;51.738;21.652;2022-09-09T06:18:34;11.73;99.99
69162;DHT22;56269;51.738;21.652;2022-09-09T06:21:04;11.74;99.99
69162;DHT22;56269;51.738;21.652;2022-09-09T06:23:36;11.77;99.99
69162;DHT22;56269;51.738;21.652;2022-09-09T06:26:06;11.83;99.99
69162;DHT22;56269;51.738;21.652;2022-09-09T06:28:36;11.77;99.99
69162;DHT22;56269;51.738;21.652;2022-09-09T06:31:09;11.86;99.99
69162;DHT22;56269;51.738;21.652;2022-09-09T06:33:40;11.86;99.99
69162;DHT22;56269;51.738;21.652;2022-09-09T06:36:11;11.86;99.99
69162;DHT22;56269;51.738;21.652;2022-09-09T06:38:38;11.87;99.99
69162;DHT22;56269;51.738;21.652;2022-09-09T06:41:04;11.90;99.99
69162;DHT22;56269;51.738;21.652;2022-09-09T06:43:32;11.90;99.99
69162;DHT22;56269;51.738;21.652;2022-09-09T06:46:15;11.90;99.99
69162;DHT22;56269;51.738;21.652;2022-09-09T06:48:43;11.90;99.99
69162;DHT22;56269;51.738;21.652;2022-09-09T06:51:17;11.90;99.99
69162;DHT22;56269;51.738;21.652;2022-09-09T06:53:46;11.94;99.99
69162;DHT22;56269;51.738;21.652;2022-09-09T06:59:05;12.00;99.99
69162;DHT22;56269;51.738;21.652;2022-09-09T07:01:34;12.10;99.99
69162;DHT22;56269;51.738;21.652;2022-09-09T07:04:03;12.07;99.99
69162;DHT22;56269;51.738;21.652;2022-09-09T07:06:32;12.13;99.99
69162;DHT22;56269;51.738;21.652;2022-09-09T07:09:01;12.18;99.99
69162;DHT22;56269;51.738;21.652;2022-09-09T07:11:32;12.18;99.99
69162;DHT22;56269;51.738;21.652;2022-09-09T07:14:00;12.27;99.99
69162;DHT22;56269;51.738;21.652;2022-09-09T07:16:27;12.31;99.99
69162;DHT22;56269;51.738;21.652;2022-09-09T07:18:55;12.25;99.99
69162;DHT22;56269;51.738;21.652;2022-09-09T07:21:26;12.33;99.99
69162;DHT22;56269;51.738;21.652;2022-09-09T07:23:54;12.31;99.99
69162;DHT22;56269;51.738;21.652;2022-09-09T07:26:23;12.28;99.99
69162;DHT22;56269;51.738;21.652;2022-09-09T07:28:50;12.21;99.99
69162;DHT22;56269;51.738;21.652;2022-09-09T07:31:22;12.23;99.99
69162;DHT22;56269;51.738;21.652;2022-09-09T07:33:48;12.28;99.99
69162;DHT22;56269;51.738;21.652;2022-09-09T07:36:21;12.33;99.99
69162;DHT22;56269;51.738;21.652;2022-09-09T07:38:50;12.37;99.99
69162;DHT22;56269;51.738;21.652;2022-09-09T07:41:54;12.46;99.99
69162;DHT22;56269;51.738;21.652;2022-09-09T07:44:22;12.54;99.99
69162;DHT22;56269;51.738;21.652;2022-09-09T07:46:51;12.55;99.99
69162;DHT22;56269;51.738;21.652;2022-09-09T07:49:17;12.62;99.99
69162;DHT22;56269;51.738;21.652;2022-09-09T07:51:45;12.59;99.99
69162;DHT22;56269;51.738;21.652;2022-09-09T07:54:14;12.55;99.99
69162;DHT22;56269;51.738;21.652;2022-09-09T07:56:42;12.68;99.99
69162;DHT22;56269;51.738;21.652;2022-09-09T07:59:08;12.75;99.99
69162;DHT22;56269;51.738;21.652;2022-09-09T08:01:41;12.82;99.99
69162;DHT22;56269;51.738;21.652;2022-09-09T08:04:18;12.92;99.99
69162;DHT22;56269;51.738;21.652;2022-09-09T08:06:48;12.92;99.99
69162;DHT22;56269;51.738;21.652;2022-09-09T08:09:16;12.85;99.99
69162;DHT22;56269;51.738;21.652;2022-09-09T08:11:43;12.85;99.99
69162;DHT22;56269;51.738;21.652;2022-09-09T08:14:11;12.93;99.99
69162;DHT22;56269;51.738;21.652;2022-09-09T08:16:40;12.97;99.99
69162;DHT22;56269;51.738;21.652;2022-09-09T08:19:08;13.06;99.99
69162;DHT22;56269;51.738;21.652;2022-09-09T08:21:37;13.07;99.70
69162;DHT22;56269;51.738;21.652;2022-09-09T08:24:05;13.06;99.18
69162;DHT22;56269;51.738;21.652;2022-09-09T08:26:41;13.12;99.99
69162;DHT22;56269;51.738;21.652;2022-09-09T08:29:10;12.99;99.99
69162;DHT22;56269;51.738;21.652;2022-09-09T08:31:39;12.95;99.99
69162;DHT22;56269;51.738;21.652;2022-09-09T08:34:07;12.97;99.99
69162;DHT22;56269;51.738;21.652;2022-09-09T08:36:38;12.89;99.99
69162;DHT22;56269;51.738;21.652;2022-09-09T08:39:06;12.92;99.99
69162;DHT22;56269;51.738;21.652;2022-09-09T08:50:13;12.89;99.99
69162;DHT22;56269;51.738;21.652;2022-09-09T08:55:42;12.97;99.99
69162;DHT22;56269;51.738;21.652;2022-09-09T08:58:17;13.07;99.99
69162;DHT22;56269;51.738;21.652;2022-09-09T09:09:13;13.17;99.99
69162;DHT22;56269;51.738;21.652;2022-09-09T09:11:47;13.20;99.99
69162;DHT22;56269;51.738;21.652;2022-09-09T09:14:24;13.27;99.92
69162;DHT22;56269;51.738;21.652;2022-09-09T09:17:02;13.23;99.90
69162;DHT22;56269;51.738;21.652;2022-09-09T09:19:30;13.33;99.84
69162;DHT22;56269;51.738;21.652;2022-09-09T09:22:04;13.40;99.99
69162;DHT22;56269;51.738;21.652;2022-09-09T09:29:51;13.33;99.99
69162;DHT22;56269;51.738;21.652;2022-09-09T09:32:21;13.33;99.99
69162;DHT22;56269;51.738;21.652;2022-09-09T09:34:54;13.42;99.99
69162;DHT22;56269;51.738;21.652;2022-09-09T09:37:33;13.43;99.99
69162;DHT22;56269;51.738;21.652;2022-09-09T09:40:11;13.36;99.99
69162;DHT22;56269;51.738;21.652;2022-09-09T09:42:54;13.32;99.99
69162;DHT22;56269;51.738;21.652;2022-09-09T09:45:33;13.32;99.99
69162;DHT22;56269;51.738;21.652;2022-09-09T09:48:04;13.42;99.99
69162;DHT22;56269;51.738;21.652;2022-09-09T09:50:31;13.43;99.99
69162;DHT22;56269;51.738;21.652;2022-09-09T09:53:03;13.42;99.99
69162;DHT22;56269;51.738;21.652;2022-09-09T09:55:32;13.43;99.99
69162;DHT22;56269;51.738;21.652;2022-09-09T09:58:02;13.47;99.99
69162;DHT22;56269;51.738;21.652;2022-09-09T10:00:29;13.50;99.99
69162;DHT22;56269;51.738;21.652;2022-09-09T10:02:59;13.46;99.99
69162;DHT22;56269;51.738;21.652;2022-09-09T10:05:30;13.40;99.99
69162;DHT22;56269;51.738;21.652;2022-09-09T10:08:12;13.51;99.99
69162;DHT22;56269;51.738;21.652;2022-09-09T10:13:15;13.43;99.99
69162;DHT22;56269;51.738;21.652;2022-09-09T10:15:53;13.43;99.99
69162;DHT22;56269;51.738;21.652;2022-09-09T10:21:42;13.46;99.99
69162;DHT22;56269;51.738;21.652;2022-09-09T10:27:28;13.54;99.99
69162;DHT22;56269;51.738;21.652;2022-09-09T10:30:11;13.61;99.77
69162;DHT22;56269;51.738;21.652;2022-09-09T10:33:01;13.68;99.99
69162;DHT22;56269;51.738;21.652;2022-09-09T10:35:52;13.77;99.99
69162;DHT22;56269;51.738;21.652;2022-09-09T10:38:33;13.73;99.99
69162;DHT22;56269;51.738;21.652;2022-09-09T10:41:13;13.74;99.99
69162;DHT22;56269;51.738;21.652;2022-09-09T10:44:09;13.66;99.73
69162;DHT22;56269;51.738;21.652;2022-09-09T10:52:33;13.66;99.99
69162;DHT22;56269;51.738;21.652;2022-09-09T10:57:50;13.66;98.67
69162;DHT22;56269;51.738;21.652;2022-09-09T11:00:28;13.71;99.39
69162;DHT22;56269;51.738;21.652;2022-09-09T11:03:02;13.73;99.83
69162;DHT22;56269;51.738;21.652;2022-09-09T11:08:18;13.50;99.98
69162;DHT22;56269;51.738;21.652;2022-09-09T11:11:04;13.51;99.99
69162;DHT22;56269;51.738;21.652;2022-09-09T11:16:40;13.64;99.62
69162;DHT22;56269;51.738;21.652;2022-09-09T11:19:34;13.56;99.63
69162;DHT22;56269;51.738;21.652;2022-09-09T11:22:25;13.60;99.99
69162;DHT22;56269;51.738;21.652;2022-09-09T11:25:10;13.66;99.99
69162;DHT22;56269;51.738;21.652;2022-09-09T11:28:10;13.67;99.99
69162;DHT22;56269;51.738;21.652;2022-09-09T11:42:26;13.79;99.45
69162;DHT22;56269;51.738;21.652;2022-09-09T11:44:53;13.88;99.98
69162;DHT22;56269;51.738;21.652;2022-09-09T11:47:22;13.92;98.86
69162;DHT22;56269;51.738;21.652;2022-09-09T11:49:52;13.89;99.04
69162;DHT22;56269;51.738;21.652;2022-09-09T11:52:40;13.95;99.57
69162;DHT22;56269;51.738;21.652;2022-09-09T11:55:11;13.84;99.32
69162;DHT22;56269;51.738;21.652;2022-09-09T11:57:38;13.77;99.49
69162;DHT22;56269;51.738;21.652;2022-09-09T12:00:06;13.70;99.59
69162;DHT22;56269;51.738;21.652;2022-09-09T12:02:34;13.71;99.61
69162;DHT22;56269;51.738;21.652;2022-09-09T12:05:06;13.71;99.85
69162;DHT22;56269;51.738;21.652;2022-09-09T12:07:39;13.79;99.93
69162;DHT22;56269;51.738;21.652;2022-09-09T12:10:25;13.78;99.69
69162;DHT22;56269;51.738;21.652;2022-09-09T12:12:54;13.88;99.99
69162;DHT22;56269;51.738;21.652;2022-09-09T12:15:28;13.91;98.95
69162;DHT22;56269;51.738;21.652;2022-09-09T12:18:07;13.92;99.73
69162;DHT22;56269;51.738;21.652;2022-09-09T12:21:01;13.92;99.99
69162;DHT22;56269;51.738;21.652;2022-09-09T12:23:49;13.84;99.96
69162;DHT22;56269;51.738;21.652;2022-09-09T12:26:43;13.78;99.82
69162;DHT22;56269;51.738;21.652;2022-09-09T12:29:38;13.78;99.92
69162;DHT22;56269;51.738;21.652;2022-09-09T12:32:14;13.82;99.99
69162;DHT22;56269;51.738;21.652;2022-09-09T12:34:53;13.78;99.84
69162;DHT22;56269;51.738;21.652;2022-09-09T12:39:58;13.77;99.88
69162;DHT22;56269;51.738;21.652;2022-09-09T12:42:26;13.73;99.88
69162;DHT22;56269;51.738;21.652;2022-09-09T12:47:27;13.71;99.99
69162;DHT22;56269;51.738;21.652;2022-09-09T12:49:55;13.79;99.99
69162;DHT22;56269;51.738;21.652;2022-09-09T12:52:32;13.84;99.98
69162;DHT22;56269;51.738;21.652;2022-09-09T12:55:05;13.87;99.99
69162;DHT22;56269;51.738;21.652;2022-09-09T12:57:38;13.84;99.99
69162;DHT22;56269;51.738;21.652;2022-09-09T13:00:16;13.85;99.99
69162;DHT22;56269;51.738;21.652;2022-09-09T13:02:57;14.02;99.96
69162;DHT22;56269;51.738;21.652;2022-09-09T13:05:37;14.08;99.31
69162;DHT22;56269;51.738;21.652;2022-09-09T13:08:09;14.11;98.91
69162;DHT22;56269;51.738;21.652;2022-09-09T13:10:47;14.14;99.11
69162;DHT22;56269;51.738;21.652;2022-09-09T13:13:18;14.21;98.51
69162;DHT22;56269;51.738;21.652;2022-09-09T13:15:52;14.17;98.43
69162;DHT22;56269;51.738;21.652;2022-09-09T13:18:23;14.12;99.20
69162;DHT22;56269;51.738;21.652;2022-09-09T13:20:50;14.12;98.66
69162;DHT22;56269;51.738;21.652;2022-09-09T13:23:19;14.14;98.66
69162;DHT22;56269;51.738;21.652;2022-09-09T13:25:57;14.11;98.82
69162;DHT22;56269;51.738;21.652;2022-09-09T13:28:26;14.09;98.46
69162;DHT22;56269;51.738;21.652;2022-09-09T13:31:02;14.08;98.55
69162;DHT22;56269;51.738;21.652;2022-09-09T13:33:33;14.12;98.63
69162;DHT22;56269;51.738;21.652;2022-09-09T13:36:07;14.17;98.92
69162;DHT22;56269;51.738;21.652;2022-09-09T13:38:37;14.24;98.73
69162;DHT22;56269;51.738;21.652;2022-09-09T13:41:08;14.24;99.05
69162;DHT22;56269;51.738;21.652;2022-09-09T13:43:44;14.35;98.18
69162;DHT22;56269;51.738;21.652;2022-09-09T13:46:34;14.36;98.23
69162;DHT22;56269;51.738;21.652;2022-09-09T13:49:21;14.40;98.70
69162;DHT22;56269;51.738;21.652;2022-09-09T13:52:08;14.39;97.62
69162;DHT22;56269;51.738;21.652;2022-09-09T13:54:34;14.40;97.65
69162;DHT22;56269;51.738;21.652;2022-09-09T13:57:01;14.45;98.50
69162;DHT22;56269;51.738;21.652;2022-09-09T13:59:28;14.32;98.11
69162;DHT22;56269;51.738;21.652;2022-09-09T14:01:54;14.29;98.38
69162;DHT22;56269;51.738;21.652;2022-09-09T14:04:21;14.29;98.40
69162;DHT22;56269;51.738;21.652;2022-09-09T14:06:48;14.28;98.90
69162;DHT22;56269;51.738;21.652;2022-09-09T14:09:16;14.18;98.71
69162;DHT22;56269;51.738;21.652;2022-09-09T14:11:45;14.17;99.08
69162;DHT22;56269;51.738;21.652;2022-09-09T14:14:12;14.17;99.08
69162;DHT22;56269;51.738;21.652;2022-09-09T14:16:39;14.19;98.56
69162;DHT22;56269;51.738;21.652;2022-09-09T14:19:08;14.08;98.49
69162;DHT22;56269;51.738;21.652;2022-09-09T14:21:34;14.05;98.86
69162;DHT22;56269;51.738;21.652;2022-09-09T14:24:01;14.05;99.28
69162;DHT22;56269;51.738;21.652;2022-09-09T14:26:27;14.01;99.26
69162;DHT22;56269;51.738;21.652;2022-09-09T14:28:55;14.05;99.04
69162;DHT22;56269;51.738;21.652;2022-09-09T14:31:31;14.09;99.47
69162;DHT22;56269;51.738;21.652;2022-09-09T14:33:57;14.11;99.25
69162;DHT22;56269;51.738;21.652;2022-09-09T14:36:23;14.19;98.78
69162;DHT22;56269;51.738;21.652;2022-09-09T14:38:53;14.09;98.82
69162;DHT22;56269;51.738;21.652;2022-09-09T14:41:20;14.15;98.67
69162;DHT22;56269;51.738;21.652;2022-09-09T14:43:48;14.08;98.94
69162;DHT22;56269;51.738;21.652;2022-09-09T14:46:24;14.09;98.91
69162;DHT22;56269;51.738;21.652;2022-09-09T14:48:50;14.22;99.00
69162;DHT22;56269;51.738;21.652;2022-09-09T14:51:19;14.09;98.73
69162;DHT22;56269;51.738;21.652;2022-09-09T14:53:46;14.21;98.69
69162;DHT22;56269;51.738;21.652;2022-09-09T14:56:17;14.18;98.37
69162;DHT22;56269;51.738;21.652;2022-09-09T14:58:44;14.15;98.31
69162;DHT22;56269;51.738;21.652;2022-09-09T15:01:12;14.05;98.83
69162;DHT22;56269;51.738;21.652;2022-09-09T15:03:40;14.02;99.02
69162;DHT22;56269;51.738;21.652;2022-09-09T15:06:08;14.05;99.01
69162;DHT22;56269;51.738;21.652;2022-09-09T15:08:37;13.97;98.88
69162;DHT22;56269;51.738;21.652;2022-09-09T15:11:04;13.95;99.19
69162;DHT22;56269;51.738;21.652;2022-09-09T15:13:36;13.97;99.51
69162;DHT22;56269;51.738;21.652;2022-09-09T15:16:06;13.95;99.82
69162;DHT22;56269;51.738;21.652;2022-09-09T15:18:33;13.91;99.58
69162;DHT22;56269;51.738;21.652;2022-09-09T15:21:03;13.89;99.45
69162;DHT22;56269;51.738;21.652;2022-09-09T15:23:49;13.85;99.54
69162;DHT22;56269;51.738;21.652;2022-09-09T15:26:15;13.84;99.76
69162;DHT22;56269;51.738;21.652;2022-09-09T15:28:44;13.75;99.99
69162;DHT22;56269;51.738;21.652;2022-09-09T15:31:23;13.77;99.56
69162;DHT22;56269;51.738;21.652;2022-09-09T15:33:52;13.78;99.70
69162;DHT22;56269;51.738;21.652;2022-09-09T15:36:21;13.78;99.90
69162;DHT22;56269;51.738;21.652;2022-09-09T15:38:48;13.84;99.84
69162;DHT22;56269;51.738;21.652;2022-09-09T15:41:15;13.85;99.85
69162;DHT22;56269;51.738;21.652;2022-09-09T15:43:52;13.89;99.49
69162;DHT22;56269;51.738;21.652;2022-09-09T15:48:58;13.79;99.36
69162;DHT22;56269;51.738;21.652;2022-09-09T15:51:28;13.82;99.44
69162;DHT22;56269;51.738;21.652;2022-09-09T15:53:55;13.82;99.67
69162;DHT22;56269;51.738;21.652;2022-09-09T15:56:23;13.77;99.58
69162;DHT22;56269;51.738;21.652;2022-09-09T15:58:50;13.70;99.99
69162;DHT22;56269;51.738;21.652;2022-09-09T16:01:18;13.78;99.68
69162;DHT22;56269;51.738;21.652;2022-09-09T16:03:45;13.79;99.80
69162;DHT22;56269;51.738;21.652;2022-09-09T16:06:16;13.78;99.93
69162;DHT22;56269;51.738;21.652;2022-09-09T16:08:45;13.79;99.52
69162;DHT22;56269;51.738;21.652;2022-09-09T16:11:17;13.61;99.99
69162;DHT22;56269;51.738;21.652;2022-09-09T16:13:47;13.63;99.99
69162;DHT22;56269;51.738;21.652;2022-09-09T16:16:15;13.58;99.99
69162;DHT22;56269;51.738;21.652;2022-09-09T16:18:46;13.57;99.99
69162;DHT22;56269;51.738;21.652;2022-09-09T16:21:16;13.56;99.99
69162;DHT22;56269;51.738;21.652;2022-09-09T16:23:52;13.54;99.99
69162;DHT22;56269;51.738;21.652;2022-09-09T16:26:22;13.48;99.99
69162;DHT22;56269;51.738;21.652;2022-09-09T16:28:49;13.44;99.99
69162;DHT22;56269;51.738;21.652;2022-09-09T16:31:18;13.44;99.99
69162;DHT22;56269;51.738;21.652;2022-09-09T16:33:45;13.44;99.99
69162;DHT22;56269;51.738;21.652;2022-09-09T16:36:14;13.42;99.99
69162;DHT22;56269;51.738;21.652;2022-09-09T16:38:41;13.39;99.99
69162;DHT22;56269;51.738;21.652;2022-09-09T16:41:10;13.33;99.99
69162;DHT22;56269;51.738;21.652;2022-09-09T16:43:37;13.35;99.99
69162;DHT22;56269;51.738;21.652;2022-09-09T16:48:37;13.32;99.99
69162;DHT22;56269;51.738;21.652;2022-09-09T16:51:11;13.28;99.99
69162;DHT22;56269;51.738;21.652;2022-09-09T16:53:39;13.26;99.99
69162;DHT22;56269;51.738;21.652;2022-09-09T16:56:12;13.27;99.99
69162;DHT22;56269;51.738;21.652;2022-09-09T16:58:38;13.23;99.99
69162;DHT22;56269;51.738;21.652;2022-09-09T17:01:05;13.24;99.99
69162;DHT22;56269;51.738;21.652;2022-09-09T17:03:32;13.20;99.99
69162;DHT22;56269;51.738;21.652;2022-09-09T17:05:58;13.23;99.99
69162;DHT22;56269;51.738;21.652;2022-09-09T17:08:29;13.20;99.99
69162;DHT22;56269;51.738;21.652;2022-09-09T17:10:56;13.22;99.99
69162;DHT22;56269;51.738;21.652;2022-09-09T17:13:22;13.16;99.99
69162;DHT22;56269;51.738;21.652;2022-09-09T17:15:48;13.16;99.99
69162;DHT22;56269;51.738;21.652;2022-09-09T17:18:15;13.19;99.99
69162;DHT22;56269;51.738;21.652;2022-09-09T17:20:41;13.22;99.99
69162;DHT22;56269;51.738;21.652;2022-09-09T17:23:09;13.22;99.99
69162;DHT22;56269;51.738;21.652;2022-09-09T17:25:35;13.17;99.99
69162;DHT22;56269;51.738;21.652;2022-09-09T17:28:02;13.19;99.99
69162;DHT22;56269;51.738;21.652;2022-09-09T17:30:35;13.22;99.99